createdAt,value
2019-03-22T00:02:10.863Z,8.81
2019-03-22T00:04:42.354Z,8.83
2019-03-22T00:07:13.696Z,8.87
2019-03-22T00:09:45.024Z,8.88
2019-03-22T00:12:16.415Z,8.83
2019-03-22T00:14:47.738Z,8.87
2019-03-22T00:17:19.073Z,8.82
2019-03-22T00:19:50.480Z,8.86
2019-03-22T00:22:21.734Z,8.83
2019-03-22T00:24:53.039Z,8.80
2019-03-22T00:27:24.328Z,8.79
2019-03-22T00:29:55.669Z,8.81
2019-03-22T00:32:27.020Z,8.88
2019-03-22T00:34:58.554Z,8.79
2019-03-22T00:37:29.835Z,8.79
2019-03-22T00:40:01.133Z,8.92
2019-03-22T00:42:32.486Z,8.83
2019-03-22T00:45:03.803Z,8.83
2019-03-22T00:47:35.131Z,8.87
2019-03-22T00:50:06.706Z,8.81
2019-03-22T00:52:38.017Z,8.75
2019-03-22T00:55:10.155Z,8.77
2019-03-22T00:57:41.471Z,8.71
2019-03-22T01:00:13.465Z,8.79
2019-03-22T01:02:44.826Z,8.77
2019-03-22T01:05:17.603Z,8.79
2019-03-22T01:07:49.449Z,8.75
2019-03-22T01:10:20.856Z,8.80
2019-03-22T01:12:52.178Z,8.72
2019-03-22T01:15:23.512Z,8.73
2019-03-22T01:17:54.905Z,8.72
2019-03-22T01:20:26.182Z,8.76
2019-03-22T01:23:00.037Z,8.75
2019-03-22T01:25:30.625Z,8.73
2019-03-22T01:28:01.886Z,8.71
2019-03-22T01:30:33.138Z,8.70
2019-03-22T01:33:04.559Z,8.74
2019-03-22T01:35:35.909Z,8.75
2019-03-22T01:38:07.287Z,8.74
2019-03-22T01:40:38.632Z,8.78
2019-03-22T01:43:10.111Z,8.80
2019-03-22T01:45:41.408Z,8.70
2019-03-22T01:48:12.753Z,8.67
2019-03-22T01:50:44.228Z,8.70
2019-03-22T01:53:15.640Z,8.67
2019-03-22T01:55:46.904Z,8.66
2019-03-22T01:58:18.216Z,8.61
2019-03-22T02:00:49.453Z,8.68
2019-03-22T02:03:20.856Z,8.69
2019-03-22T02:05:52.233Z,8.66
2019-03-22T02:08:23.982Z,8.58
2019-03-22T02:10:55.358Z,8.53
2019-03-22T02:13:26.758Z,8.55
2019-03-22T02:15:58.160Z,8.52
2019-03-22T02:18:29.407Z,8.51
2019-03-22T02:21:00.783Z,8.47
2019-03-22T02:23:32.077Z,8.52
2019-03-22T02:26:03.374Z,8.55
2019-03-22T02:28:34.662Z,8.51
2019-03-22T02:31:06.017Z,8.63
2019-03-22T02:33:37.344Z,8.59
2019-03-22T02:36:08.659Z,8.55
2019-03-22T02:38:40.008Z,8.59
2019-03-22T02:41:11.415Z,8.58
2019-03-22T02:43:42.763Z,8.55
2019-03-22T02:46:14.127Z,8.47
2019-03-22T02:48:45.429Z,8.44
2019-03-22T02:51:16.826Z,8.40
2019-03-22T02:53:48.122Z,8.35
2019-03-22T02:56:19.463Z,8.40
2019-03-22T02:58:50.746Z,8.43
2019-03-22T03:01:22.063Z,8.41
2019-03-22T04:24:49.036Z,8.43
2019-03-22T04:27:23.929Z,8.56
2019-03-22T04:29:56.842Z,8.49
2019-03-22T04:32:29.340Z,8.48
2019-03-22T04:35:00.778Z,8.50
2019-03-22T04:37:54.070Z,8.46
2019-03-22T04:40:28.864Z,8.47
2019-03-22T04:43:00.429Z,8.43
2019-03-22T04:45:34.815Z,8.45
2019-03-22T04:48:14.754Z,8.45
2019-03-22T04:50:49.812Z,8.43
2019-03-22T04:53:27.400Z,8.45
2019-03-22T04:56:04.783Z,8.43
2019-03-22T04:58:43.467Z,8.43
2019-03-22T05:01:18.879Z,8.42
2019-03-22T05:03:50.665Z,8.43
2019-03-22T05:06:23.538Z,8.44
2019-03-22T05:08:57.253Z,8.45
2019-03-22T05:11:30.050Z,8.44
2019-03-22T05:14:05.273Z,8.40
2019-03-22T05:16:41.902Z,8.42
2019-03-22T05:19:17.207Z,8.40
2019-03-22T05:21:51.464Z,8.42
2019-03-22T05:24:25.669Z,8.46
2019-03-22T05:26:59.827Z,8.47
2019-03-22T05:29:34.979Z,8.44
2019-03-22T05:32:14.725Z,8.44
2019-03-22T05:34:46.059Z,8.48
2019-03-22T05:37:17.345Z,8.43
2019-03-22T05:39:48.687Z,8.43
2019-03-22T05:42:20.004Z,8.46
2019-03-22T05:44:51.263Z,8.46
2019-03-22T05:47:22.633Z,8.48
2019-03-22T05:49:53.932Z,8.46
2019-03-22T05:52:25.232Z,8.43
2019-03-22T05:54:56.540Z,8.41
2019-03-22T05:57:27.909Z,8.45
2019-03-22T05:59:59.234Z,8.44
2019-03-22T06:02:30.578Z,8.45
2019-03-22T06:05:01.851Z,8.43
2019-03-22T06:07:33.134Z,8.46
2019-03-22T06:10:04.688Z,8.64
2019-03-22T06:12:35.998Z,8.54
2019-03-22T06:15:08.320Z,8.46
2019-03-22T06:17:50.907Z,8.54
2019-03-22T06:20:12.664Z,8.49
2019-03-22T06:22:43.921Z,8.46
2019-03-22T06:25:15.166Z,8.47
2019-03-22T06:27:46.418Z,8.49
2019-03-22T06:30:17.774Z,8.50
2019-03-22T06:32:49.103Z,8.55
2019-03-22T06:35:20.428Z,8.56
2019-03-22T06:37:51.766Z,8.55
2019-03-22T06:40:23.178Z,8.57
2019-03-22T06:42:54.489Z,8.53
2019-03-22T06:45:25.828Z,8.56
2019-03-22T06:47:56.988Z,8.56
2019-03-22T06:50:28.403Z,8.57
2019-03-22T06:52:59.771Z,8.54
2019-03-22T06:55:31.096Z,8.57
2019-03-22T06:58:02.383Z,8.66
2019-03-22T07:00:33.656Z,8.67
2019-03-22T07:03:05.026Z,8.63
2019-03-22T07:05:36.313Z,8.69
2019-03-22T07:08:07.653Z,8.73
2019-03-22T07:10:38.956Z,8.85
2019-03-22T07:13:10.365Z,8.83
2019-03-22T07:15:41.714Z,8.83
2019-03-22T07:18:13.047Z,8.83
2019-03-22T07:20:44.394Z,8.84
2019-03-22T07:23:15.722Z,8.87
2019-03-22T07:25:47.646Z,8.76
2019-03-22T07:28:18.977Z,8.78
2019-03-22T07:30:50.289Z,8.83
2019-03-22T07:33:21.647Z,8.84
2019-03-22T07:35:52.960Z,8.93
2019-03-22T07:38:27.163Z,8.90
2019-03-22T07:40:58.376Z,8.98
2019-03-22T07:43:29.848Z,9.01
2019-03-22T07:46:01.302Z,9.11
2019-03-22T07:48:32.632Z,9.11
2019-03-22T07:51:04.058Z,9.10
2019-03-22T07:53:35.369Z,9.10
2019-03-22T07:56:06.886Z,9.19
2019-03-22T07:58:38.183Z,9.18
2019-03-22T08:01:09.487Z,9.21
2019-03-22T08:03:40.797Z,9.28
2019-03-22T08:06:12.131Z,9.36
2019-03-22T08:08:43.432Z,9.38
2019-03-22T08:11:14.798Z,9.40
2019-03-22T08:13:46.035Z,9.42
2019-03-22T08:16:17.280Z,9.45
2019-03-22T08:18:48.637Z,9.49
2019-03-22T08:21:19.978Z,9.51
2019-03-22T08:23:51.322Z,9.65
2019-03-22T08:26:22.642Z,9.81
2019-03-22T08:28:53.874Z,9.84
2019-03-22T08:31:25.070Z,9.72
2019-03-22T08:33:56.406Z,9.71
2019-03-22T08:36:27.590Z,9.80
2019-03-22T08:38:58.763Z,9.88
2019-03-22T08:41:30.143Z,9.91
2019-03-22T08:44:02.852Z,9.83
2019-03-22T08:46:34.475Z,9.81
2019-03-22T08:49:09.077Z,9.80
2019-03-22T08:51:38.814Z,9.82
2019-03-22T08:54:10.034Z,9.76
2019-03-22T08:56:41.339Z,9.71
2019-03-22T08:59:13.543Z,9.81
2019-03-22T09:01:45.053Z,9.83
2019-03-22T09:04:16.327Z,9.88
2019-03-22T09:06:47.627Z,9.85
2019-03-22T09:09:18.742Z,9.92
2019-03-22T09:11:50.048Z,10.02
2019-03-22T09:14:21.279Z,10.09
2019-03-22T09:16:52.665Z,10.13
2019-03-22T09:19:23.908Z,10.20
2019-03-22T09:21:55.266Z,10.19
2019-03-22T09:24:38.518Z,10.23
2019-03-22T09:26:59.557Z,10.25
2019-03-22T09:29:30.743Z,10.30
2019-03-22T09:32:02.009Z,10.27
2019-03-22T09:34:34.247Z,10.32
2019-03-22T09:37:08.641Z,10.29
2019-03-22T09:39:39.073Z,10.39
2019-03-22T09:42:10.390Z,10.54
2019-03-22T09:44:43.839Z,10.39
2019-03-22T09:47:16.504Z,10.46
2019-03-22T09:49:47.589Z,10.44
2019-03-22T09:52:18.914Z,10.51
2019-03-22T09:54:50.623Z,10.48
2019-03-22T09:57:21.938Z,10.45
2019-03-22T09:59:53.248Z,10.50
2019-03-22T10:02:24.556Z,10.39
2019-03-22T10:04:55.798Z,10.53
2019-03-22T10:07:27.179Z,10.59
2019-03-22T10:09:58.361Z,10.68
2019-03-22T10:12:29.705Z,10.79
2019-03-22T10:15:01.039Z,10.64
2019-03-22T10:17:32.325Z,10.65
2019-03-22T10:20:03.508Z,10.81
2019-03-22T10:22:34.924Z,10.97
2019-03-22T10:25:06.721Z,11.11
2019-03-22T10:27:38.067Z,11.00
2019-03-22T10:30:09.977Z,11.08
2019-03-22T10:32:41.255Z,11.07
2019-03-22T10:35:25.436Z,11.27
2019-03-22T10:37:45.930Z,11.35
2019-03-22T10:40:17.425Z,11.47
2019-03-22T10:42:48.849Z,11.55
2019-03-22T10:45:20.271Z,11.43
2019-03-22T10:47:51.579Z,11.62
2019-03-22T10:50:22.907Z,11.64
2019-03-22T10:52:54.230Z,11.60
2019-03-22T10:55:30.308Z,11.69
2019-03-22T10:57:58.243Z,11.94
2019-03-22T11:00:29.657Z,11.90
2019-03-22T11:03:00.976Z,12.04
2019-03-22T11:05:32.312Z,12.13
2019-03-22T11:08:03.556Z,12.15
2019-03-22T11:10:34.839Z,12.24
2019-03-22T11:13:06.446Z,12.35
2019-03-22T11:15:47.919Z,12.40
2019-03-22T11:18:10.886Z,12.50
2019-03-22T11:20:42.278Z,12.73
2019-03-22T11:23:13.459Z,12.96
2019-03-22T11:25:44.804Z,12.97
2019-03-22T11:28:16.195Z,13.08
2019-03-22T11:30:47.529Z,12.96
2019-03-22T11:33:18.830Z,12.93
2019-03-22T11:35:50.204Z,12.99
2019-03-22T11:38:23.002Z,12.78
2019-03-22T11:40:54.346Z,13.06
2019-03-22T11:43:25.738Z,13.00
2019-03-22T11:45:56.928Z,13.22
2019-03-22T11:48:28.231Z,13.12
2019-03-22T11:50:59.477Z,13.18
2019-03-22T11:53:30.695Z,13.57
2019-03-22T11:56:02.052Z,13.63
2019-03-22T11:58:33.366Z,13.45
2019-03-22T12:01:04.634Z,13.75
2019-03-22T12:03:35.977Z,14.15
2019-03-22T12:06:07.485Z,14.25
2019-03-22T12:08:38.764Z,14.33
2019-03-22T12:11:10.011Z,14.52
2019-03-22T12:13:41.374Z,14.26
2019-03-22T12:16:12.701Z,14.34
2019-03-22T12:18:44.004Z,14.24
2019-03-22T12:21:15.385Z,14.48
2019-03-22T12:23:46.770Z,14.87
2019-03-22T12:26:18.073Z,15.07
2019-03-22T12:28:49.417Z,14.91
2019-03-22T12:31:20.764Z,15.02
2019-03-22T12:33:52.006Z,14.91
2019-03-22T12:36:23.267Z,15.21
2019-03-22T12:38:54.566Z,15.26
2019-03-22T12:41:25.805Z,15.72
2019-03-22T12:43:57.304Z,16.27
2019-03-22T12:46:28.585Z,17.34
2019-03-22T12:48:59.887Z,18.85
2019-03-22T12:51:31.225Z,20.71
2019-03-22T12:54:02.599Z,21.02
2019-03-22T12:56:33.808Z,21.54
2019-03-22T12:59:05.112Z,20.71
2019-03-22T13:01:36.403Z,19.85
2019-03-22T13:04:07.961Z,18.62
2019-03-22T13:06:39.330Z,17.53
2019-03-22T13:09:11.380Z,16.96
2019-03-22T13:11:42.679Z,17.67
2019-03-22T13:14:13.971Z,17.99
2019-03-22T13:16:45.256Z,19.42
2019-03-22T13:19:16.597Z,20.83
2019-03-22T13:21:47.963Z,21.47
2019-03-22T13:24:19.334Z,22.14
2019-03-22T13:26:50.689Z,22.79
2019-03-22T13:29:22.024Z,22.84
2019-03-22T13:31:53.328Z,23.09
2019-03-22T13:34:24.677Z,23.46
2019-03-22T13:36:55.947Z,24.87
2019-03-22T13:39:27.189Z,24.30
2019-03-22T13:41:58.483Z,25.85
2019-03-22T13:44:29.899Z,25.45
2019-03-22T13:47:01.222Z,26.08
2019-03-22T13:49:32.698Z,25.80
2019-03-22T13:52:04.220Z,26.57
2019-03-22T13:54:35.699Z,26.54
2019-03-22T13:57:07.036Z,26.72
2019-03-22T13:59:38.433Z,26.49
2019-03-22T14:02:09.741Z,25.80
2019-03-22T14:04:40.998Z,26.19
2019-03-22T14:07:12.285Z,26.28
2019-03-22T14:09:43.408Z,26.72
2019-03-22T14:12:14.642Z,27.86
2019-03-22T14:14:46.226Z,27.36
2019-03-22T14:17:17.566Z,27.76
2019-03-22T14:19:48.810Z,27.16
2019-03-22T14:22:20.080Z,27.38
2019-03-22T14:25:10.655Z,24.85
2019-03-22T14:28:02.822Z,26.47
2019-03-22T14:30:34.165Z,26.74
2019-03-22T14:33:12.818Z,27.25
2019-03-22T14:35:38.524Z,26.17
2019-03-22T14:38:09.851Z,26.32
2019-03-22T14:40:41.170Z,27.12
2019-03-22T14:43:12.413Z,27.01
2019-03-22T14:45:43.697Z,26.66
2019-03-22T14:48:14.950Z,25.93
2019-03-22T14:50:46.282Z,25.81
2019-03-22T14:53:17.580Z,25.79
2019-03-22T14:55:48.810Z,25.79
2019-03-22T14:58:20.149Z,24.74
2019-03-22T15:00:51.459Z,25.40
2019-03-22T15:03:28.585Z,25.46
2019-03-22T15:05:59.846Z,25.87
2019-03-22T15:08:31.133Z,25.69
2019-03-22T15:11:02.531Z,24.36
2019-03-22T15:13:44.650Z,24.74
2019-03-22T15:16:47.615Z,24.99
2019-03-22T15:19:50.083Z,25.13
2019-03-22T15:22:43.520Z,25.16
2019-03-22T15:25:40.123Z,24.03
2019-03-22T15:28:34.072Z,23.74
2019-03-22T15:31:39.435Z,24.24
2019-03-22T15:34:28.255Z,23.93
2019-03-22T15:37:27.175Z,23.61
2019-03-22T15:40:05.250Z,23.12
2019-03-22T15:42:36.617Z,22.41
2019-03-22T15:45:11.930Z,22.26
2019-03-22T15:47:43.358Z,22.28
2019-03-22T15:50:16.744Z,21.58
2019-03-22T15:52:48.111Z,20.78
2019-03-22T15:55:19.576Z,20.25
2019-03-22T15:57:50.893Z,20.17
2019-03-22T16:00:22.348Z,19.98
2019-03-22T16:02:53.649Z,19.72
2019-03-22T16:05:24.970Z,19.43
2019-03-22T16:07:56.301Z,19.15
2019-03-22T16:10:27.646Z,18.60
2019-03-22T16:12:58.983Z,18.27
2019-03-22T16:15:30.319Z,18.08
2019-03-22T16:18:01.711Z,17.57
2019-03-22T16:20:32.969Z,17.55
2019-03-22T16:23:04.382Z,17.26
2019-03-22T16:25:54.524Z,16.98
2019-03-22T16:28:25.798Z,16.99
2019-03-22T16:30:57.060Z,16.66
2019-03-22T16:33:28.320Z,16.59
2019-03-22T16:35:59.665Z,16.34
2019-03-22T16:38:30.950Z,16.18
2019-03-22T16:41:02.335Z,16.06
2019-03-22T16:43:33.595Z,16.03
2019-03-22T16:46:04.961Z,15.81
2019-03-22T16:48:36.370Z,15.79
2019-03-22T16:51:07.812Z,15.62
2019-03-22T16:53:39.142Z,15.45
2019-03-22T16:56:10.431Z,15.25
2019-03-22T16:58:41.831Z,15.36
2019-03-22T17:01:13.356Z,15.17
2019-03-22T17:03:44.730Z,15.00
2019-03-22T17:06:16.073Z,14.88
2019-03-22T17:08:47.303Z,14.66
2019-03-22T17:11:18.656Z,14.48
2019-03-22T17:13:50.072Z,14.21
2019-03-22T17:16:21.429Z,14.13
2019-03-22T17:18:52.587Z,14.05
2019-03-22T17:21:23.837Z,13.97
2019-03-22T17:23:55.160Z,13.88
2019-03-22T17:26:26.442Z,13.83
2019-03-22T17:28:57.793Z,13.63
2019-03-22T17:31:29.123Z,13.48
2019-03-22T17:34:00.484Z,13.27
2019-03-22T17:36:31.836Z,13.13
2019-03-22T17:39:03.278Z,12.95
2019-03-22T17:41:34.692Z,12.84
2019-03-22T17:44:06.051Z,12.66
2019-03-22T17:46:37.436Z,12.56
2019-03-22T17:49:08.748Z,12.45
2019-03-22T17:51:40.135Z,12.27
2019-03-22T17:54:11.450Z,12.21
2019-03-22T17:56:42.760Z,12.11
2019-03-22T17:59:14.126Z,12.04
2019-03-22T18:01:45.584Z,11.93
2019-03-22T18:04:23.842Z,11.77
2019-03-22T18:06:49.970Z,11.66
2019-03-22T18:09:22.532Z,11.49
2019-03-22T18:11:53.825Z,11.39
2019-03-22T18:14:26.941Z,11.36
2019-03-22T18:16:57.993Z,11.23
2019-03-22T18:19:29.283Z,11.18
2019-03-22T18:22:00.444Z,11.09
2019-03-22T18:24:31.667Z,11.05
2019-03-22T18:27:03.119Z,11.00
2019-03-22T18:29:34.386Z,10.90
2019-03-22T18:32:05.723Z,10.93
2019-03-22T18:34:37.622Z,10.82
2019-03-22T18:37:08.943Z,10.68
2019-03-22T18:39:40.302Z,10.60
2019-03-22T18:42:11.596Z,10.54
2019-03-22T18:44:42.906Z,10.48
2019-03-22T18:47:14.126Z,10.55
2019-03-22T18:49:45.653Z,10.54
2019-03-22T18:52:17.032Z,10.54
2019-03-22T18:54:48.736Z,10.60
2019-03-22T18:57:19.955Z,10.65
2019-03-22T18:59:51.186Z,10.57
2019-03-22T19:02:22.531Z,10.59
2019-03-22T19:04:53.855Z,10.63
2019-03-22T19:07:25.293Z,10.64
2019-03-22T19:09:56.711Z,10.72
2019-03-22T19:12:28.349Z,10.79
2019-03-22T19:14:59.666Z,10.82
2019-03-22T19:17:30.947Z,10.85
2019-03-22T19:20:02.229Z,10.77
2019-03-22T19:22:33.536Z,10.78
2019-03-22T19:25:05.193Z,10.78
2019-03-22T19:27:36.475Z,10.83
2019-03-22T19:30:08.881Z,10.80
2019-03-22T19:32:40.346Z,10.85
2019-03-22T19:35:13.212Z,10.76
2019-03-22T19:37:44.585Z,10.71
2019-03-22T19:40:17.515Z,10.72
2019-03-22T19:42:48.833Z,10.65
2019-03-22T19:45:20.301Z,10.70
2019-03-22T19:47:51.556Z,10.66
2019-03-22T19:50:22.919Z,10.65
2019-03-22T19:52:54.208Z,10.66
2019-03-22T19:55:25.508Z,10.57
2019-03-22T19:57:57.354Z,10.56
2019-03-22T20:00:28.703Z,10.64
2019-03-22T20:02:59.992Z,10.51
2019-03-22T20:05:33.204Z,10.51
2019-03-22T20:08:05.095Z,10.55
2019-03-22T20:10:38.921Z,10.48
2019-03-22T20:13:10.352Z,10.60
2019-03-22T20:15:41.788Z,10.51
2019-03-22T20:18:13.150Z,10.42
2019-03-22T20:20:44.579Z,10.55
2019-03-22T20:23:15.960Z,10.76
2019-03-22T20:25:47.208Z,10.80
2019-03-22T20:28:18.509Z,10.82
2019-03-22T20:30:49.882Z,10.84
2019-03-22T20:33:21.192Z,10.85
2019-03-22T20:35:52.466Z,10.86
2019-03-22T20:38:24.988Z,10.78
2019-03-22T20:40:56.433Z,10.69
2019-03-22T20:43:27.734Z,10.76
2019-03-22T20:45:59.046Z,10.71
2019-03-22T20:48:30.351Z,10.66
2019-03-22T20:51:01.752Z,10.75
2019-03-22T20:53:33.105Z,10.77
2019-03-22T20:56:04.667Z,10.79
2019-03-22T20:58:36.055Z,10.83
2019-03-22T21:01:07.458Z,10.79
2019-03-22T21:03:38.759Z,10.73
2019-03-22T21:06:10.546Z,10.69
2019-03-22T21:08:42.350Z,10.81
2019-03-22T21:11:16.926Z,10.70
2019-03-22T21:13:48.287Z,10.59
2019-03-22T21:16:19.661Z,10.55
2019-03-22T21:18:51.070Z,10.55
2019-03-22T21:21:25.392Z,10.46
2019-03-22T21:23:55.735Z,10.51
2019-03-22T21:26:27.461Z,10.53
2019-03-22T21:28:58.945Z,10.46
2019-03-22T21:31:30.256Z,10.44
2019-03-22T21:34:01.671Z,10.54
2019-03-22T21:36:33.072Z,10.47
2019-03-22T21:39:06.445Z,10.40
2019-03-22T21:41:38.205Z,10.39
2019-03-22T21:44:10.002Z,10.24
2019-03-22T21:46:42.682Z,10.31
2019-03-22T21:49:14.272Z,10.29
2019-03-22T21:51:45.743Z,10.22
2019-03-22T21:54:17.149Z,10.20
2019-03-22T21:56:48.524Z,10.14
2019-03-22T21:59:19.901Z,10.09
2019-03-22T22:01:51.221Z,10.10
2019-03-22T22:04:22.500Z,10.17
2019-03-22T22:06:54.037Z,10.10
2019-03-22T22:09:25.393Z,10.04
2019-03-22T22:11:56.751Z,9.95
2019-03-22T22:14:28.041Z,9.87
2019-03-22T22:16:59.472Z,9.85
2019-03-22T22:19:31.180Z,9.86
2019-03-22T22:22:02.424Z,9.91
2019-03-22T22:24:33.750Z,9.93
2019-03-22T22:27:13.496Z,9.87
2019-03-22T22:29:38.161Z,9.82
2019-03-22T22:32:09.530Z,9.80
2019-03-22T22:34:40.725Z,9.81
2019-03-22T22:37:12.099Z,9.75
2019-03-22T22:39:43.458Z,9.81
2019-03-22T22:42:14.815Z,9.92
2019-03-22T22:44:46.010Z,9.92
2019-03-22T22:47:17.429Z,9.90
2019-03-22T22:49:49.063Z,9.90
2019-03-22T22:52:20.424Z,9.83
2019-03-22T22:54:51.759Z,9.83
2019-03-22T22:57:23.108Z,9.77
2019-03-22T22:59:54.472Z,9.76
2019-03-22T23:02:25.807Z,9.81
2019-03-22T23:04:57.151Z,9.79
2019-03-22T23:07:28.443Z,9.79
2019-03-22T23:09:59.787Z,9.81
2019-03-22T23:12:31.087Z,9.74
2019-03-22T23:15:02.449Z,9.71
2019-03-22T23:17:35.865Z,9.74
2019-03-22T23:20:07.673Z,9.72
2019-03-22T23:22:39.057Z,9.71
2019-03-22T23:25:11.080Z,9.76
2019-03-22T23:27:42.385Z,9.70
2019-03-22T23:30:14.636Z,9.72
2019-03-22T23:32:46.010Z,9.67
2019-03-22T23:35:17.322Z,9.64
2019-03-22T23:37:48.644Z,9.62
2019-03-22T23:40:19.991Z,9.52
2019-03-22T23:42:51.335Z,9.45
2019-03-22T23:45:22.641Z,9.39
2019-03-22T23:47:53.974Z,9.38
2019-03-22T23:50:25.144Z,9.39
2019-03-22T23:52:56.477Z,9.37
2019-03-22T23:55:27.823Z,9.34
2019-03-22T23:57:59.225Z,9.26
